sensor_id;sensor_type;location;lat;lon;timestamp;P1;durP1;ratioP1;P2;durP2;ratioP2
44264;SDS011;29954;50.828;4.922;2022-10-16T00:01:30;0.10;;;0.10;;
44264;SDS011;29954;50.828;4.922;2022-10-16T00:03:57;0.10;;;0.10;;
44264;SDS011;29954;50.828;4.922;2022-10-16T00:06:24;0.20;;;0.10;;
44264;SDS011;29954;50.828;4.922;2022-10-16T00:08:51;0.20;;;0.10;;
44264;SDS011;29954;50.828;4.922;2022-10-16T00:11:19;0.10;;;0.10;;
44264;SDS011;29954;50.828;4.922;2022-10-16T00:13:46;0.30;;;0.10;;
44264;SDS011;29954;50.828;4.922;2022-10-16T00:16:13;0.15;;;0.10;;
44264;SDS011;29954;50.828;4.922;2022-10-16T00:18:40;0.10;;;0.10;;
44264;SDS011;29954;50.828;4.922;2022-10-16T00:21:07;0.00;;;0.00;;
44264;SDS011;29954;50.828;4.922;2022-10-16T00:23:34;0.20;;;0.13;;
44264;SDS011;29954;50.828;4.922;2022-10-16T00:26:02;0.00;;;0.00;;
44264;SDS011;29954;50.828;4.922;2022-10-16T00:28:29;0.03;;;0.03;;
44264;SDS011;29954;50.828;4.922;2022-10-16T00:30:56;0.47;;;0.00;;
44264;SDS011;29954;50.828;4.922;2022-10-16T00:33:22;0.20;;;0.08;;
44264;SDS011;29954;50.828;4.922;2022-10-16T00:35:49;0.60;;;0.10;;
44264;SDS011;29954;50.828;4.922;2022-10-16T00:38:16;0.05;;;0.05;;
44264;SDS011;29954;50.828;4.922;2022-10-16T00:40:42;0.10;;;0.00;;
44264;SDS011;29954;50.828;4.922;2022-10-16T00:43:12;0.43;;;0.10;;
44264;SDS011;29954;50.828;4.922;2022-10-16T00:45:39;0.10;;;0.00;;
44264;SDS011;29954;50.828;4.922;2022-10-16T00:48:06;0.08;;;0.08;;
44264;SDS011;29954;50.828;4.922;2022-10-16T00:50:34;0.43;;;0.20;;
44264;SDS011;29954;50.828;4.922;2022-10-16T00:53:01;0.00;;;0.00;;
44264;SDS011;29954;50.828;4.922;2022-10-16T00:55:27;0.13;;;0.00;;
44264;SDS011;29954;50.828;4.922;2022-10-16T00:57:56;0.08;;;0.08;;
44264;SDS011;29954;50.828;4.922;2022-10-16T01:00:24;0.17;;;0.00;;
44264;SDS011;29954;50.828;4.922;2022-10-16T01:02:52;0.00;;;0.00;;
44264;SDS011;29954;50.828;4.922;2022-10-16T01:05:18;0.10;;;0.00;;
44264;SDS011;29954;50.828;4.922;2022-10-16T01:13:12;0.20;;;0.00;;
44264;SDS011;29954;50.828;4.922;2022-10-16T01:20:50;0.10;;;0.00;;
44264;SDS011;29954;50.828;4.922;2022-10-16T01:23:28;0.10;;;0.00;;
44264;SDS011;29954;50.828;4.922;2022-10-16T01:26:12;0.13;;;0.10;;
44264;SDS011;29954;50.828;4.922;2022-10-16T01:28:49;0.35;;;0.10;;
44264;SDS011;29954;50.828;4.922;2022-10-16T01:31:18;0.10;;;0.10;;
44264;SDS011;29954;50.828;4.922;2022-10-16T01:33:47;0.00;;;0.00;;
44264;SDS011;29954;50.828;4.922;2022-10-16T01:36:18;0.20;;;0.10;;
44264;SDS011;29954;50.828;4.922;2022-10-16T01:38:47;0.20;;;0.00;;
44264;SDS011;29954;50.828;4.922;2022-10-16T01:41:23;0.10;;;0.00;;
44264;SDS011;29954;50.828;4.922;2022-10-16T01:46:30;0.05;;;0.05;;
44264;SDS011;29954;50.828;4.922;2022-10-16T01:48:57;0.20;;;0.10;;
44264;SDS011;29954;50.828;4.922;2022-10-16T01:51:23;0.00;;;0.00;;
44264;SDS011;29954;50.828;4.922;2022-10-16T01:53:52;0.08;;;0.08;;
44264;SDS011;29954;50.828;4.922;2022-10-16T01:56:19;0.10;;;0.10;;
44264;SDS011;29954;50.828;4.922;2022-10-16T01:58:49;0.00;;;0.00;;
44264;SDS011;29954;50.828;4.922;2022-10-16T02:01:17;0.10;;;0.10;;
44264;SDS011;29954;50.828;4.922;2022-10-16T02:03:45;0.20;;;0.05;;
44264;SDS011;29954;50.828;4.922;2022-10-16T02:06:12;0.00;;;0.00;;
44264;SDS011;29954;50.828;4.922;2022-10-16T02:08:38;0.10;;;0.00;;
44264;SDS011;29954;50.828;4.922;2022-10-16T02:11:06;0.00;;;0.00;;
44264;SDS011;29954;50.828;4.922;2022-10-16T02:13:34;0.10;;;0.10;;
44264;SDS011;29954;50.828;4.922;2022-10-16T02:16:02;0.00;;;0.00;;
44264;SDS011;29954;50.828;4.922;2022-10-16T02:18:28;0.00;;;0.00;;
44264;SDS011;29954;50.828;4.922;2022-10-16T02:20:57;0.00;;;0.00;;
44264;SDS011;29954;50.828;4.922;2022-10-16T02:23:44;0.00;;;0.00;;
44264;SDS011;29954;50.828;4.922;2022-10-16T02:26:12;0.10;;;0.10;;
44264;SDS011;29954;50.828;4.922;2022-10-16T02:28:45;0.13;;;0.10;;
44264;SDS011;29954;50.828;4.922;2022-10-16T02:31:14;0.13;;;0.00;;
44264;SDS011;29954;50.828;4.922;2022-10-16T02:33:42;0.00;;;0.00;;
44264;SDS011;29954;50.828;4.922;2022-10-16T02:36:09;0.50;;;0.00;;
44264;SDS011;29954;50.828;4.922;2022-10-16T02:38:36;0.10;;;0.10;;
44264;SDS011;29954;50.828;4.922;2022-10-16T02:41:03;0.10;;;0.10;;
44264;SDS011;29954;50.828;4.922;2022-10-16T02:43:30;0.00;;;0.00;;
44264;SDS011;29954;50.828;4.922;2022-10-16T02:45:56;0.22;;;0.08;;
44264;SDS011;29954;50.828;4.922;2022-10-16T02:48:23;0.10;;;0.10;;
44264;SDS011;29954;50.828;4.922;2022-10-16T02:50:49;0.10;;;0.10;;
44264;SDS011;29954;50.828;4.922;2022-10-16T02:53:15;0.00;;;0.00;;
44264;SDS011;29954;50.828;4.922;2022-10-16T02:55:42;0.13;;;0.00;;
44264;SDS011;29954;50.828;4.922;2022-10-16T02:58:08;0.00;;;0.00;;
44264;SDS011;29954;50.828;4.922;2022-10-16T03:00:35;0.00;;;0.00;;
44264;SDS011;29954;50.828;4.922;2022-10-16T03:03:02;0.10;;;0.00;;
44264;SDS011;29954;50.828;4.922;2022-10-16T03:05:28;0.00;;;0.00;;
44264;SDS011;29954;50.828;4.922;2022-10-16T03:07:54;0.13;;;0.10;;
44264;SDS011;29954;50.828;4.922;2022-10-16T03:10:21;0.00;;;0.00;;
44264;SDS011;29954;50.828;4.922;2022-10-16T03:12:47;0.00;;;0.00;;
44264;SDS011;29954;50.828;4.922;2022-10-16T03:15:14;0.08;;;0.00;;
44264;SDS011;29954;50.828;4.922;2022-10-16T03:17:40;0.00;;;0.00;;
44264;SDS011;29954;50.828;4.922;2022-10-16T03:20:07;0.00;;;0.00;;
44264;SDS011;29954;50.828;4.922;2022-10-16T03:22:33;0.25;;;0.00;;
44264;SDS011;29954;50.828;4.922;2022-10-16T03:24:59;0.00;;;0.00;;
44264;SDS011;29954;50.828;4.922;2022-10-16T03:27:26;0.03;;;0.00;;
44264;SDS011;29954;50.828;4.922;2022-10-16T03:29:53;0.00;;;0.00;;
44264;SDS011;29954;50.828;4.922;2022-10-16T03:32:19;0.10;;;0.00;;
44264;SDS011;29954;50.828;4.922;2022-10-16T03:34:46;0.17;;;0.10;;
44264;SDS011;29954;50.828;4.922;2022-10-16T03:37:12;0.08;;;0.00;;
44264;SDS011;29954;50.828;4.922;2022-10-16T03:39:39;0.00;;;0.00;;
44264;SDS011;29954;50.828;4.922;2022-10-16T03:42:05;0.20;;;0.00;;
44264;SDS011;29954;50.828;4.922;2022-10-16T03:44:31;0.30;;;0.00;;
44264;SDS011;29954;50.828;4.922;2022-10-16T03:46:58;0.13;;;0.00;;
44264;SDS011;29954;50.828;4.922;2022-10-16T03:49:24;0.05;;;0.00;;
44264;SDS011;29954;50.828;4.922;2022-10-16T03:51:50;0.00;;;0.00;;
44264;SDS011;29954;50.828;4.922;2022-10-16T03:54:17;0.00;;;0.00;;
44264;SDS011;29954;50.828;4.922;2022-10-16T03:56:43;0.28;;;0.00;;
44264;SDS011;29954;50.828;4.922;2022-10-16T03:59:09;0.00;;;0.00;;
44264;SDS011;29954;50.828;4.922;2022-10-16T04:01:36;0.03;;;0.00;;
44264;SDS011;29954;50.828;4.922;2022-10-16T04:04:02;0.00;;;0.00;;
44264;SDS011;29954;50.828;4.922;2022-10-16T04:06:28;0.35;;;0.10;;
44264;SDS011;29954;50.828;4.922;2022-10-16T04:08:55;0.10;;;0.00;;
44264;SDS011;29954;50.828;4.922;2022-10-16T04:11:22;0.10;;;0.05;;
44264;SDS011;29954;50.828;4.922;2022-10-16T04:13:48;0.10;;;0.10;;
44264;SDS011;29954;50.828;4.922;2022-10-16T04:16:14;0.10;;;0.00;;
44264;SDS011;29954;50.828;4.922;2022-10-16T04:18:41;0.30;;;0.00;;
44264;SDS011;29954;50.828;4.922;2022-10-16T04:21:07;0.05;;;0.05;;
44264;SDS011;29954;50.828;4.922;2022-10-16T04:23:34;0.30;;;0.10;;
44264;SDS011;29954;50.828;4.922;2022-10-16T04:26:00;0.10;;;0.00;;
44264;SDS011;29954;50.828;4.922;2022-10-16T04:28:28;0.10;;;0.10;;
44264;SDS011;29954;50.828;4.922;2022-10-16T04:30:54;0.10;;;0.10;;
44264;SDS011;29954;50.828;4.922;2022-10-16T04:33:21;0.15;;;0.10;;
44264;SDS011;29954;50.828;4.922;2022-10-16T04:35:47;0.00;;;0.00;;
44264;SDS011;29954;50.828;4.922;2022-10-16T04:38:13;0.10;;;0.03;;
44264;SDS011;29954;50.828;4.922;2022-10-16T04:40:41;0.20;;;0.10;;
44264;SDS011;29954;50.828;4.922;2022-10-16T04:43:07;0.40;;;0.00;;
44264;SDS011;29954;50.828;4.922;2022-10-16T04:45:34;0.10;;;0.10;;
44264;SDS011;29954;50.828;4.922;2022-10-16T04:48:00;0.10;;;0.10;;
44264;SDS011;29954;50.828;4.922;2022-10-16T04:50:27;0.03;;;0.00;;
44264;SDS011;29954;50.828;4.922;2022-10-16T04:52:59;0.00;;;0.00;;
44264;SDS011;29954;50.828;4.922;2022-10-16T04:55:27;0.13;;;0.10;;
44264;SDS011;29954;50.828;4.922;2022-10-16T04:57:54;0.20;;;0.10;;
44264;SDS011;29954;50.828;4.922;2022-10-16T05:00:20;0.30;;;0.10;;
44264;SDS011;29954;50.828;4.922;2022-10-16T05:02:49;0.00;;;0.00;;
44264;SDS011;29954;50.828;4.922;2022-10-16T05:05:16;0.40;;;0.10;;
44264;SDS011;29954;50.828;4.922;2022-10-16T05:07:47;0.45;;;0.10;;
44264;SDS011;29954;50.828;4.922;2022-10-16T05:10:15;0.10;;;0.10;;
44264;SDS011;29954;50.828;4.922;2022-10-16T05:12:42;0.10;;;0.03;;
44264;SDS011;29954;50.828;4.922;2022-10-16T05:15:08;0.20;;;0.10;;
44264;SDS011;29954;50.828;4.922;2022-10-16T05:17:35;0.10;;;0.10;;
44264;SDS011;29954;50.828;4.922;2022-10-16T05:20:05;0.15;;;0.10;;
44264;SDS011;29954;50.828;4.922;2022-10-16T05:22:31;0.10;;;0.10;;
44264;SDS011;29954;50.828;4.922;2022-10-16T05:24:58;0.00;;;0.00;;
44264;SDS011;29954;50.828;4.922;2022-10-16T05:27:24;0.08;;;0.08;;
44264;SDS011;29954;50.828;4.922;2022-10-16T05:29:51;0.08;;;0.08;;
44264;SDS011;29954;50.828;4.922;2022-10-16T05:32:17;0.13;;;0.10;;
44264;SDS011;29954;50.828;4.922;2022-10-16T05:34:44;0.10;;;0.00;;
44264;SDS011;29954;50.828;4.922;2022-10-16T05:37:11;0.10;;;0.00;;
44264;SDS011;29954;50.828;4.922;2022-10-16T05:39:38;0.10;;;0.10;;
44264;SDS011;29954;50.828;4.922;2022-10-16T05:42:05;0.00;;;0.00;;
44264;SDS011;29954;50.828;4.922;2022-10-16T05:44:31;0.10;;;0.00;;
44264;SDS011;29954;50.828;4.922;2022-10-16T05:46:59;0.10;;;0.00;;
44264;SDS011;29954;50.828;4.922;2022-10-16T05:49:25;0.08;;;0.08;;
44264;SDS011;29954;50.828;4.922;2022-10-16T05:51:51;0.05;;;0.05;;
44264;SDS011;29954;50.828;4.922;2022-10-16T05:54:18;0.00;;;0.00;;
44264;SDS011;29954;50.828;4.922;2022-10-16T05:56:44;0.10;;;0.10;;
44264;SDS011;29954;50.828;4.922;2022-10-16T05:59:11;0.17;;;0.00;;
44264;SDS011;29954;50.828;4.922;2022-10-16T06:01:37;0.00;;;0.00;;
44264;SDS011;29954;50.828;4.922;2022-10-16T06:04:03;0.00;;;0.00;;
44264;SDS011;29954;50.828;4.922;2022-10-16T06:06:30;0.10;;;0.10;;
44264;SDS011;29954;50.828;4.922;2022-10-16T06:08:57;0.10;;;0.10;;
44264;SDS011;29954;50.828;4.922;2022-10-16T06:11:24;0.10;;;0.00;;
44264;SDS011;29954;50.828;4.922;2022-10-16T06:13:52;0.10;;;0.00;;
44264;SDS011;29954;50.828;4.922;2022-10-16T06:16:18;0.00;;;0.00;;
44264;SDS011;29954;50.828;4.922;2022-10-16T06:18:45;0.08;;;0.08;;
44264;SDS011;29954;50.828;4.922;2022-10-16T06:21:14;0.30;;;0.08;;
44264;SDS011;29954;50.828;4.922;2022-10-16T06:23:40;0.10;;;0.10;;
44264;SDS011;29954;50.828;4.922;2022-10-16T06:28:33;0.10;;;0.08;;
44264;SDS011;29954;50.828;4.922;2022-10-16T06:31:00;0.10;;;0.00;;
44264;SDS011;29954;50.828;4.922;2022-10-16T06:33:33;0.10;;;0.10;;
44264;SDS011;29954;50.828;4.922;2022-10-16T06:36:03;0.03;;;0.03;;
44264;SDS011;29954;50.828;4.922;2022-10-16T06:38:30;0.00;;;0.00;;
44264;SDS011;29954;50.828;4.922;2022-10-16T06:40:56;0.03;;;0.03;;
44264;SDS011;29954;50.828;4.922;2022-10-16T06:43:22;0.30;;;0.10;;
44264;SDS011;29954;50.828;4.922;2022-10-16T06:45:52;0.08;;;0.08;;
44264;SDS011;29954;50.828;4.922;2022-10-16T06:48:19;0.22;;;0.10;;
44264;SDS011;29954;50.828;4.922;2022-10-16T06:50:59;0.20;;;0.10;;
44264;SDS011;29954;50.828;4.922;2022-10-16T06:53:26;0.40;;;0.10;;
44264;SDS011;29954;50.828;4.922;2022-10-16T06:55:53;0.10;;;0.00;;
44264;SDS011;29954;50.828;4.922;2022-10-16T06:58:19;0.10;;;0.10;;
44264;SDS011;29954;50.828;4.922;2022-10-16T07:00:46;0.20;;;0.00;;
44264;SDS011;29954;50.828;4.922;2022-10-16T07:03:12;0.25;;;0.10;;
44264;SDS011;29954;50.828;4.922;2022-10-16T07:05:39;0.20;;;0.10;;
44264;SDS011;29954;50.828;4.922;2022-10-16T07:08:06;0.10;;;0.10;;
44264;SDS011;29954;50.828;4.922;2022-10-16T07:10:33;0.10;;;0.10;;
44264;SDS011;29954;50.828;4.922;2022-10-16T07:12:59;0.20;;;0.10;;
44264;SDS011;29954;50.828;4.922;2022-10-16T07:15:26;0.13;;;0.10;;
44264;SDS011;29954;50.828;4.922;2022-10-16T07:17:53;0.10;;;0.10;;
44264;SDS011;29954;50.828;4.922;2022-10-16T07:20:19;0.10;;;0.10;;
44264;SDS011;29954;50.828;4.922;2022-10-16T07:22:45;0.10;;;0.10;;
44264;SDS011;29954;50.828;4.922;2022-10-16T07:25:12;0.10;;;0.10;;
44264;SDS011;29954;50.828;4.922;2022-10-16T07:27:38;0.03;;;0.00;;
44264;SDS011;29954;50.828;4.922;2022-10-16T07:30:05;0.00;;;0.00;;
44264;SDS011;29954;50.828;4.922;2022-10-16T07:32:34;0.30;;;0.05;;
44264;SDS011;29954;50.828;4.922;2022-10-16T07:35:00;0.15;;;0.10;;
44264;SDS011;29954;50.828;4.922;2022-10-16T07:37:27;0.20;;;0.03;;
44264;SDS011;29954;50.828;4.922;2022-10-16T07:39:54;0.15;;;0.10;;
44264;SDS011;29954;50.828;4.922;2022-10-16T07:42:21;0.00;;;0.00;;
44264;SDS011;29954;50.828;4.922;2022-10-16T07:44:47;0.08;;;0.08;;
44264;SDS011;29954;50.828;4.922;2022-10-16T07:47:13;0.17;;;0.10;;
44264;SDS011;29954;50.828;4.922;2022-10-16T07:49:40;0.10;;;0.10;;
44264;SDS011;29954;50.828;4.922;2022-10-16T07:54:58;0.10;;;0.00;;
44264;SDS011;29954;50.828;4.922;2022-10-16T07:57:24;0.03;;;0.03;;
44264;SDS011;29954;50.828;4.922;2022-10-16T07:59:51;0.10;;;0.10;;
44264;SDS011;29954;50.828;4.922;2022-10-16T08:02:17;0.03;;;0.03;;
44264;SDS011;29954;50.828;4.922;2022-10-16T08:04:46;0.10;;;0.00;;
44264;SDS011;29954;50.828;4.922;2022-10-16T08:07:12;0.10;;;0.10;;
44264;SDS011;29954;50.828;4.922;2022-10-16T08:09:39;0.20;;;0.10;;
44264;SDS011;29954;50.828;4.922;2022-10-16T08:12:05;0.05;;;0.00;;
44264;SDS011;29954;50.828;4.922;2022-10-16T08:14:32;0.05;;;0.03;;
44264;SDS011;29954;50.828;4.922;2022-10-16T08:16:58;0.00;;;0.00;;
44264;SDS011;29954;50.828;4.922;2022-10-16T08:19:24;0.32;;;0.13;;
44264;SDS011;29954;50.828;4.922;2022-10-16T08:21:51;0.20;;;0.10;;
44264;SDS011;29954;50.828;4.922;2022-10-16T08:24:17;0.10;;;0.10;;
44264;SDS011;29954;50.828;4.922;2022-10-16T08:26:44;0.13;;;0.10;;
44264;SDS011;29954;50.828;4.922;2022-10-16T08:29:10;0.00;;;0.00;;
44264;SDS011;29954;50.828;4.922;2022-10-16T08:31:36;0.10;;;0.10;;
44264;SDS011;29954;50.828;4.922;2022-10-16T08:34:03;0.20;;;0.10;;
44264;SDS011;29954;50.828;4.922;2022-10-16T08:36:29;0.10;;;0.10;;
44264;SDS011;29954;50.828;4.922;2022-10-16T08:38:55;0.32;;;0.10;;
44264;SDS011;29954;50.828;4.922;2022-10-16T08:46:53;0.00;;;0.00;;
44264;SDS011;29954;50.828;4.922;2022-10-16T08:49:16;0.10;;;0.10;;
44264;SDS011;29954;50.828;4.922;2022-10-16T08:51:42;0.30;;;0.10;;
44264;SDS011;29954;50.828;4.922;2022-10-16T08:54:21;0.20;;;0.10;;
44264;SDS011;29954;50.828;4.922;2022-10-16T08:56:49;0.20;;;0.10;;
44264;SDS011;29954;50.828;4.922;2022-10-16T08:59:15;0.77;;;0.15;;
44264;SDS011;29954;50.828;4.922;2022-10-16T09:01:45;0.20;;;0.10;;
44264;SDS011;29954;50.828;4.922;2022-10-16T09:06:46;0.22;;;0.20;;
44264;SDS011;29954;50.828;4.922;2022-10-16T09:11:48;0.10;;;0.10;;
44264;SDS011;29954;50.828;4.922;2022-10-16T09:17:06;0.20;;;0.20;;
44264;SDS011;29954;50.828;4.922;2022-10-16T09:19:41;0.30;;;0.20;;
44264;SDS011;29954;50.828;4.922;2022-10-16T09:22:17;0.20;;;0.10;;
44264;SDS011;29954;50.828;4.922;2022-10-16T09:24:44;0.13;;;0.13;;
44264;SDS011;29954;50.828;4.922;2022-10-16T09:27:11;0.30;;;0.20;;
44264;SDS011;29954;50.828;4.922;2022-10-16T09:29:38;0.20;;;0.13;;
44264;SDS011;29954;50.828;4.922;2022-10-16T09:32:15;0.52;;;0.20;;
44264;SDS011;29954;50.828;4.922;2022-10-16T09:34:50;0.40;;;0.20;;
44264;SDS011;29954;50.828;4.922;2022-10-16T09:37:18;0.38;;;0.20;;
44264;SDS011;29954;50.828;4.922;2022-10-16T09:42:16;0.57;;;0.20;;
44264;SDS011;29954;50.828;4.922;2022-10-16T09:44:42;0.20;;;0.20;;
44264;SDS011;29954;50.828;4.922;2022-10-16T09:49:42;0.40;;;0.20;;
44264;SDS011;29954;50.828;4.922;2022-10-16T09:52:16;0.70;;;0.20;;
44264;SDS011;29954;50.828;4.922;2022-10-16T09:55:17;0.25;;;0.15;;
44264;SDS011;29954;50.828;4.922;2022-10-16T09:57:35;0.28;;;0.10;;
44264;SDS011;29954;50.828;4.922;2022-10-16T10:00:07;0.20;;;0.20;;
44264;SDS011;29954;50.828;4.922;2022-10-16T10:02:35;0.40;;;0.20;;
44264;SDS011;29954;50.828;4.922;2022-10-16T10:05:02;0.63;;;0.22;;
44264;SDS011;29954;50.828;4.922;2022-10-16T10:07:31;0.30;;;0.10;;
44264;SDS011;29954;50.828;4.922;2022-10-16T10:10:03;0.55;;;0.10;;
44264;SDS011;29954;50.828;4.922;2022-10-16T10:12:30;0.60;;;0.20;;
44264;SDS011;29954;50.828;4.922;2022-10-16T10:15:03;0.40;;;0.20;;
44264;SDS011;29954;50.828;4.922;2022-10-16T10:17:30;0.30;;;0.20;;
44264;SDS011;29954;50.828;4.922;2022-10-16T10:22:43;0.63;;;0.10;;
44264;SDS011;29954;50.828;4.922;2022-10-16T10:35:56;0.80;;;0.20;;
44264;SDS011;29954;50.828;4.922;2022-10-16T10:38:31;0.70;;;0.20;;
44264;SDS011;29954;50.828;4.922;2022-10-16T10:41:05;0.60;;;0.30;;
44264;SDS011;29954;50.828;4.922;2022-10-16T10:43:49;0.80;;;0.20;;
44264;SDS011;29954;50.828;4.922;2022-10-16T10:46:22;0.40;;;0.20;;
44264;SDS011;29954;50.828;4.922;2022-10-16T10:57:02;0.30;;;0.20;;
44264;SDS011;29954;50.828;4.922;2022-10-16T11:07:20;0.52;;;0.20;;
44264;SDS011;29954;50.828;4.922;2022-10-16T11:09:48;0.65;;;0.30;;
44264;SDS011;29954;50.828;4.922;2022-10-16T11:12:22;0.82;;;0.15;;
44264;SDS011;29954;50.828;4.922;2022-10-16T11:17:40;0.63;;;0.20;;
44264;SDS011;29954;50.828;4.922;2022-10-16T11:20:13;0.45;;;0.22;;
44264;SDS011;29954;50.828;4.922;2022-10-16T11:25:14;0.80;;;0.30;;
44264;SDS011;29954;50.828;4.922;2022-10-16T11:28:15;1.23;;;0.30;;
44264;SDS011;29954;50.828;4.922;2022-10-16T11:30:43;2.13;;;0.60;;
44264;SDS011;29954;50.828;4.922;2022-10-16T11:36:41;0.40;;;0.20;;
44264;SDS011;29954;50.828;4.922;2022-10-16T11:41:37;0.77;;;0.38;;
44264;SDS011;29954;50.828;4.922;2022-10-16T11:46:33;0.65;;;0.25;;
44264;SDS011;29954;50.828;4.922;2022-10-16T11:49:22;0.68;;;0.30;;
44264;SDS011;29954;50.828;4.922;2022-10-16T11:56:43;0.65;;;0.32;;
44264;SDS011;29954;50.828;4.922;2022-10-16T12:02:15;0.70;;;0.40;;
44264;SDS011;29954;50.828;4.922;2022-10-16T12:09:38;0.45;;;0.20;;
44264;SDS011;29954;50.828;4.922;2022-10-16T12:12:05;0.95;;;0.45;;
44264;SDS011;29954;50.828;4.922;2022-10-16T12:14:59;0.40;;;0.30;;
44264;SDS011;29954;50.828;4.922;2022-10-16T12:17:45;1.00;;;0.30;;
44264;SDS011;29954;50.828;4.922;2022-10-16T12:22:48;0.50;;;0.40;;
44264;SDS011;29954;50.828;4.922;2022-10-16T12:25:19;1.15;;;0.38;;
44264;SDS011;29954;50.828;4.922;2022-10-16T12:27:53;0.60;;;0.30;;
44264;SDS011;29954;50.828;4.922;2022-10-16T12:30:23;0.88;;;0.30;;
44264;SDS011;29954;50.828;4.922;2022-10-16T12:32:54;2.50;;;0.40;;
44264;SDS011;29954;50.828;4.922;2022-10-16T12:35:22;0.88;;;0.35;;
44264;SDS011;29954;50.828;4.922;2022-10-16T12:37:49;0.82;;;0.30;;
44264;SDS011;29954;50.828;4.922;2022-10-16T12:40:24;0.98;;;0.20;;
44264;SDS011;29954;50.828;4.922;2022-10-16T12:42:51;1.10;;;0.30;;
44264;SDS011;29954;50.828;4.922;2022-10-16T12:45:26;0.80;;;0.40;;
44264;SDS011;29954;50.828;4.922;2022-10-16T12:47:52;0.83;;;0.30;;
44264;SDS011;29954;50.828;4.922;2022-10-16T12:50:38;2.47;;;0.52;;
44264;SDS011;29954;50.828;4.922;2022-10-16T12:55:34;1.00;;;0.30;;
44264;SDS011;29954;50.828;4.922;2022-10-16T12:58:07;1.10;;;0.40;;
44264;SDS011;29954;50.828;4.922;2022-10-16T13:00:45;0.98;;;0.30;;
44264;SDS011;29954;50.828;4.922;2022-10-16T13:18:41;1.30;;;0.30;;
44264;SDS011;29954;50.828;4.922;2022-10-16T13:21:31;0.57;;;0.28;;
44264;SDS011;29954;50.828;4.922;2022-10-16T13:24:06;0.80;;;0.40;;
44264;SDS011;29954;50.828;4.922;2022-10-16T13:29:10;0.60;;;0.28;;
44264;SDS011;29954;50.828;4.922;2022-10-16T13:31:37;1.38;;;0.30;;
44264;SDS011;29954;50.828;4.922;2022-10-16T13:34:04;1.05;;;0.30;;
44264;SDS011;29954;50.828;4.922;2022-10-16T13:36:35;0.55;;;0.20;;
44264;SDS011;29954;50.828;4.922;2022-10-16T13:39:16;1.20;;;0.30;;
44264;SDS011;29954;50.828;4.922;2022-10-16T13:41:46;0.95;;;0.20;;
44264;SDS011;29954;50.828;4.922;2022-10-16T13:44:23;1.27;;;0.30;;
44264;SDS011;29954;50.828;4.922;2022-10-16T13:46:59;0.50;;;0.30;;
44264;SDS011;29954;50.828;4.922;2022-10-16T13:49:26;1.60;;;0.30;;
44264;SDS011;29954;50.828;4.922;2022-10-16T13:51:57;1.20;;;0.45;;
44264;SDS011;29954;50.828;4.922;2022-10-16T13:54:24;0.70;;;0.20;;
44264;SDS011;29954;50.828;4.922;2022-10-16T13:56:51;0.50;;;0.28;;
44264;SDS011;29954;50.828;4.922;2022-10-16T13:59:35;0.73;;;0.30;;
44264;SDS011;29954;50.828;4.922;2022-10-16T14:02:05;1.00;;;0.30;;
44264;SDS011;29954;50.828;4.922;2022-10-16T14:04:32;1.67;;;0.60;;
44264;SDS011;29954;50.828;4.922;2022-10-16T14:06:59;0.80;;;0.30;;
44264;SDS011;29954;50.828;4.922;2022-10-16T14:09:26;1.17;;;0.30;;
44264;SDS011;29954;50.828;4.922;2022-10-16T14:12:00;0.70;;;0.30;;
44264;SDS011;29954;50.828;4.922;2022-10-16T14:14:33;1.00;;;0.40;;
44264;SDS011;29954;50.828;4.922;2022-10-16T14:17:00;1.20;;;0.40;;
44264;SDS011;29954;50.828;4.922;2022-10-16T14:19:28;0.65;;;0.50;;
44264;SDS011;29954;50.828;4.922;2022-10-16T14:21:55;0.85;;;0.35;;
44264;SDS011;29954;50.828;4.922;2022-10-16T14:24:27;0.75;;;0.20;;
44264;SDS011;29954;50.828;4.922;2022-10-16T14:26:53;1.02;;;0.40;;
44264;SDS011;29954;50.828;4.922;2022-10-16T14:29:24;1.00;;;0.40;;
44264;SDS011;29954;50.828;4.922;2022-10-16T14:32:00;1.10;;;0.30;;
44264;SDS011;29954;50.828;4.922;2022-10-16T14:34:32;0.60;;;0.28;;
44264;SDS011;29954;50.828;4.922;2022-10-16T14:37:18;4.53;;;0.47;;
44264;SDS011;29954;50.828;4.922;2022-10-16T14:39:53;1.40;;;0.47;;
44264;SDS011;29954;50.828;4.922;2022-10-16T14:42:20;2.38;;;0.50;;
44264;SDS011;29954;50.828;4.922;2022-10-16T14:44:50;1.73;;;0.40;;
44264;SDS011;29954;50.828;4.922;2022-10-16T14:47:19;0.50;;;0.30;;
44264;SDS011;29954;50.828;4.922;2022-10-16T14:49:48;1.65;;;0.40;;
44264;SDS011;29954;50.828;4.922;2022-10-16T14:52:14;1.05;;;0.30;;
44264;SDS011;29954;50.828;4.922;2022-10-16T14:54:41;1.50;;;0.40;;
44264;SDS011;29954;50.828;4.922;2022-10-16T14:57:26;0.43;;;0.20;;
44264;SDS011;29954;50.828;4.922;2022-10-16T14:59:54;1.33;;;0.30;;
44264;SDS011;29954;50.828;4.922;2022-10-16T15:04:47;1.20;;;0.30;;
44264;SDS011;29954;50.828;4.922;2022-10-16T15:07:13;0.43;;;0.30;;
44264;SDS011;29954;50.828;4.922;2022-10-16T15:09:40;0.65;;;0.30;;
44264;SDS011;29954;50.828;4.922;2022-10-16T15:12:14;1.45;;;0.40;;
44264;SDS011;29954;50.828;4.922;2022-10-16T15:14:40;1.05;;;0.20;;
44264;SDS011;29954;50.828;4.922;2022-10-16T15:17:08;0.82;;;0.40;;
44264;SDS011;29954;50.828;4.922;2022-10-16T15:19:35;0.60;;;0.30;;
